Time;durP1;ratioP1;P1;durP2;ratioP2;P2;SDS_P1;SDS_P2;PMS_P1;PMS_P2;Temp;Humidity;BMP_temperature;BMP_pressure;BME280_temperature;BME280_humidity;BME280_pressure;Samples;Min_cycle;Max_cycle;Signal;HPM_P1;HPM_P2
2022/01/28 00:02:38;;;;;;;16.45;11.22;;;;;;;1.15;83.63;98886.25;1747337;80;20930;-51
2022/01/28 00:04:43;;;;;;;18.33;11.00;;;;;;;1.15;83.61;98884.92;1743762;81;22168;-52
2022/01/28 00:07:10;;;;;;;16.07;11.50;;;;;;;1.14;83.56;98875.23;1750510;81;20910;-52
2022/01/28 00:09:37;;;;;;;16.37;9.87;;;;;;;1.13;83.52;98869.51;1750576;81;20902;-51
2022/01/28 00:12:05;;;;;;;19.37;10.63;;;;;;;1.13;83.48;98874.35;1749706;81;20914;-52
2022/01/28 00:14:41;;;;;;;15.33;9.73;;;;;;;1.15;83.39;98869.02;1748971;81;20898;-51
2022/01/28 00:38:28;;;;;;;13.90;9.53;;;;;;;1.14;83.11;98842.09;1799801;78;21697;-52
2022/01/28 00:40:53;;;;;;;16.80;10.73;;;;;;;1.13;83.11;98834.59;1764205;80;21120;-51
2022/01/28 00:43:19;;;;;;;18.63;10.73;;;;;;;1.13;83.12;98832.40;1743336;80;21222;-53
2022/01/28 00:45:45;;;;;;;16.00;10.17;;;;;;;1.13;83.10;98828.42;1738008;80;21142;-51
2022/01/28 00:48:12;;;;;;;19.17;9.93;;;;;;;1.12;83.05;98824.90;1764911;80;21036;-52
2022/01/28 00:50:41;;;;;;;14.77;9.20;;;;;;;1.13;83.02;98827.97;1741851;80;21115;-52
2022/01/28 00:53:07;;;;;;;17.40;9.53;;;;;;;1.15;82.97;98818.66;1769490;80;21421;-51
2022/01/28 00:55:33;;;;;;;16.17;9.70;;;;;;;1.17;82.96;98814.66;1742973;80;21118;-52
2022/01/28 00:57:59;;;;;;;14.27;10.13;;;;;;;1.19;82.90;98807.53;1743428;79;21104;-52
2022/01/28 01:00:25;;;;;;;16.37;9.97;;;;;;;1.20;82.86;98810.13;1744309;81;21653;-52
2022/01/28 01:02:52;;;;;;;16.43;10.73;;;;;;;1.19;82.81;98804.44;1748328;81;21035;-52
2022/01/28 01:05:18;;;;;;;16.83;10.40;;;;;;;1.19;82.69;98797.81;1745823;81;21163;-52
2022/01/28 01:07:45;;;;;;;16.73;9.20;;;;;;;1.18;82.62;98794.73;1746271;81;21556;-51
2022/01/28 01:10:12;;;;;;;16.43;10.43;;;;;;;1.16;82.56;98791.25;1746744;81;21077;-52
2022/01/28 01:12:43;;;;;;;14.03;8.77;;;;;;;1.18;82.54;98789.89;1745137;81;21084;-52
2022/01/28 01:15:08;;;;;;;13.73;8.70;;;;;;;1.18;82.53;98784.13;1744774;80;21017;-51
2022/01/28 01:17:52;;;;;;;18.63;10.47;;;;;;;1.19;82.48;98783.23;1745314;81;21487;-52
2022/01/28 01:20:31;;;;;;;16.35;9.58;;;;;;;1.21;82.48;98771.23;1745094;81;22389;-52
2022/01/28 01:22:42;;;;;;;14.37;8.87;;;;;;;1.20;82.34;98770.36;1741847;81;21061;-52
2022/01/28 01:25:22;;;;;;;14.83;9.07;;;;;;;1.18;82.22;98765.58;1744915;81;21553;-52
2022/01/28 01:27:45;;;;;;;14.05;8.65;;;;;;;1.17;82.18;98755.88;1742306;80;28262;-52
2022/01/28 01:30:14;;;;;;;13.60;6.97;;;;;;;1.15;82.11;98749.74;1749249;80;21056;-52
2022/01/28 01:32:40;;;;;;;13.57;9.03;;;;;;;1.16;82.14;98757.24;1769115;80;23036;-51
2022/01/28 01:35:07;;;;;;;13.83;9.77;;;;;;;1.15;82.16;98757.70;1766231;80;21081;-51
2022/01/28 01:37:34;;;;;;;15.33;8.43;;;;;;;1.16;82.16;98752.81;1750430;80;21531;-52
2022/01/28 01:40:01;;;;;;;15.47;9.47;;;;;;;1.16;82.11;98746.64;1735654;81;21862;-51
2022/01/28 01:42:47;;;;;;;19.07;9.13;;;;;;;1.13;82.04;98740.95;1772939;79;21148;-52
2022/01/28 01:45:42;;;;;;;15.87;8.77;;;;;;;1.12;82.07;98729.94;1745892;80;22258;-50
2022/01/28 01:53:11;;;;;;;14.20;9.40;;;;;;;1.10;82.13;98725.16;1765167;80;21134;-51
2022/01/28 01:55:37;;;;;;;17.37;10.73;;;;;;;1.08;82.28;98725.64;1742679;80;21050;-50
2022/01/28 01:58:03;;;;;;;16.50;11.00;;;;;;;1.08;82.33;98721.67;1761403;80;21142;-51
2022/01/28 02:00:30;;;;;;;17.07;10.87;;;;;;;1.07;82.38;98709.33;1764945;78;22331;-52
2022/01/28 02:02:57;;;;;;;11.90;8.00;;;;;;;1.07;82.39;98713.30;1738408;80;21086;-52
2022/01/28 02:05:23;;;;;;;14.10;9.67;;;;;;;1.08;82.45;98709.29;1738109;80;21618;-52
2022/01/28 02:07:50;;;;;;;18.07;10.40;;;;;;;1.09;82.44;98705.73;1761219;80;21038;-52
2022/01/28 02:10:17;;;;;;;16.03;9.57;;;;;;;1.08;82.50;98709.74;1762427;78;21766;-52
2022/01/28 02:12:51;;;;;;;13.57;9.93;;;;;;;1.08;82.62;98703.12;1722102;81;21564;-52
2022/01/28 02:15:18;;;;;;;13.33;8.20;;;;;;;1.06;82.71;98707.13;1748606;81;21048;-50
2022/01/28 02:17:45;;;;;;;14.90;9.97;;;;;;;1.04;82.81;98706.74;1747815;81;21021;-51
2022/01/28 02:20:30;;;;;;;12.60;7.87;;;;;;;1.03;82.85;98701.90;1746082;81;21518;-52
2022/01/28 02:22:54;;;;;;;16.60;9.63;;;;;;;1.03;82.99;98707.65;1746093;81;21125;-52
2022/01/28 02:25:28;;;;;;;14.53;9.10;;;;;;;1.02;83.11;98700.64;1744116;81;21514;-52
2022/01/28 02:28:00;;;;;;;12.10;7.83;;;;;;;1.01;83.18;98697.13;1747391;81;20906;-52
2022/01/28 02:30:23;;;;;;;14.30;9.77;;;;;;;1.02;83.27;98698.83;1743281;81;21108;-52
2022/01/28 02:32:51;;;;;;;14.87;9.87;;;;;;;1.00;83.29;98695.38;1749145;81;21405;-52
2022/01/28 02:35:17;;;;;;;14.73;8.73;;;;;;;0.98;83.31;98698.52;1743704;81;21138;-52
2022/01/28 02:37:44;;;;;;;11.17;7.47;;;;;;;0.97;83.34;98690.14;1744542;81;21438;-53
2022/01/28 02:40:11;;;;;;;15.50;8.93;;;;;;;0.95;83.36;98685.78;1744142;81;21458;-52
2022/01/28 02:42:55;;;;;;;13.20;8.83;;;;;;;0.94;83.42;98692.87;1747863;81;20938;-52
2022/01/28 02:45:21;;;;;;;12.07;8.28;;;;;;;0.94;83.48;98691.54;1742949;81;21460;-52
2022/01/28 02:47:42;;;;;;;14.83;9.60;;;;;;;0.94;83.50;98686.70;1746144;81;22140;-52
2022/01/28 02:50:09;;;;;;;11.23;7.37;;;;;;;0.94;83.59;98686.24;1751714;80;22108;-52
2022/01/28 02:52:43;;;;;;;14.63;8.63;;;;;;;0.94;83.57;98680.94;1747329;80;20921;-52
2022/01/28 02:55:09;;;;;;;13.27;8.70;;;;;;;0.94;83.55;98674.77;1750757;80;22199;-52
2022/01/28 02:57:37;;;;;;;13.37;8.03;;;;;;;0.95;83.58;98680.48;1774321;80;20935;-52
2022/01/28 03:03:00;;;;;;;13.47;8.37;;;;;;;1.01;83.65;98675.05;1790055;78;26427;-51
2022/01/28 03:07:53;;;;;;;12.13;8.50;;;;;;;1.01;83.74;98677.70;1761546;79;21148;-51
2022/01/28 03:10:29;;;;;;;12.50;7.63;;;;;;;1.01;83.71;98672.40;1763930;79;21582;-51
2022/01/28 03:15:39;;;;;;;;;;;;;;;1.00;83.59;98666.23;1768572;79;21279;-54
2022/01/28 03:18:15;;;;;;;11.47;6.57;;;;;;;0.99;83.58;98665.81;1765109;79;20284;-54
2022/01/28 03:20:57;;;;;;;13.53;6.60;;;;;;;0.99;83.63;98664.48;1769045;79;21547;-54
2022/01/28 03:23:12;;;;;;;10.47;6.77;;;;;;;0.99;83.68;98664.94;1763851;80;20894;-53
2022/01/28 03:25:43;;;;;;;11.43;6.27;;;;;;;1.00;83.71;98664.03;1770147;79;21767;-54
2022/01/28 03:28:07;;;;;;;12.20;6.93;;;;;;;1.00;83.64;98665.36;1765823;79;20906;-54
2022/01/28 03:30:33;;;;;;;9.40;6.13;;;;;;;0.99;83.63;98664.48;1769682;79;21471;-54
2022/01/28 03:33:00;;;;;;;10.57;6.43;;;;;;;0.96;83.57;98659.25;1764567;79;21377;-51
2022/01/28 03:35:26;;;;;;;11.80;6.33;;;;;;;0.96;83.57;98668.53;1766622;79;20914;-54
2022/01/28 03:37:59;;;;;;;9.80;5.90;;;;;;;0.95;83.60;98668.11;1767892;79;21570;-54
2022/01/28 03:40:21;;;;;;;6.83;5.07;;;;;;;0.96;83.71;98652.63;1761580;79;21105;-54
2022/01/28 03:42:48;;;;;;;9.07;5.73;;;;;;;0.98;83.81;98650.81;1767632;79;21025;-54
2022/01/28 03:45:14;;;;;;;10.83;6.80;;;;;;;1.00;83.79;98641.51;1764821;79;21217;-54
2022/01/28 03:47:41;;;;;;;8.33;5.63;;;;;;;0.99;83.73;98641.96;1765875;79;21429;-54
2022/01/28 03:50:07;;;;;;;7.87;5.77;;;;;;;1.00;83.79;98637.08;1761817;79;21072;-54
2022/01/28 03:52:34;;;;;;;8.57;5.50;;;;;;;0.99;83.76;98640.64;1715346;81;20895;-53
2022/01/28 03:55:00;;;;;;;8.93;5.57;;;;;;;1.01;83.73;98636.17;1719395;81;20966;-54
2022/01/28 03:57:27;;;;;;;5.63;3.93;;;;;;;1.02;83.75;98636.56;1706404;81;21028;-54
2022/01/28 03:59:53;;;;;;;7.00;4.73;;;;;;;1.01;83.70;98643.25;1681992;83;21045;-54
2022/01/28 04:02:25;;;;;;;8.70;4.77;;;;;;;1.01;83.73;98635.30;1670411;83;21108;-54
2022/01/28 04:12:48;;;;;;;7.30;4.73;;;;;;;0.97;83.79;98629.66;1719518;81;21065;-52
2022/01/28 04:18:01;;;;;;;3.92;2.92;;;;;;;0.95;83.86;98626.17;1723139;81;26612;-52
2022/01/28 04:20:30;;;;;;;8.27;3.57;;;;;;;0.95;83.98;98631.02;1721693;81;21037;-52
2022/01/28 04:22:57;;;;;;;8.00;4.53;;;;;;;0.97;83.97;98624.36;1726048;81;23200;-52
2022/01/28 04:25:24;;;;;;;4.47;3.40;;;;;;;0.98;83.96;98619.48;1723362;81;21069;-52
2022/01/28 04:27:50;;;;;;;4.57;3.47;;;;;;;1.00;83.95;98621.63;1724493;81;21113;-52
2022/01/28 04:30:16;;;;;;;5.13;3.53;;;;;;;0.99;83.87;98622.55;1720350;81;21069;-52
2022/01/28 04:32:46;;;;;;;6.97;3.10;;;;;;;0.99;83.84;98624.73;1722591;81;21590;-52
2022/01/28 04:35:11;;;;;;;4.10;2.67;;;;;;;0.99;83.85;98626.52;1723535;81;21097;-52
2022/01/28 04:37:51;;;;;;;4.97;2.80;;;;;;;1.00;83.86;98628.26;1721759;81;22540;-52
2022/01/28 04:43:01;;;;;;;4.37;2.20;;;;;;;1.03;83.92;98627.70;1725623;81;20934;-52
2022/01/28 04:45:22;;;;;;;4.10;2.75;;;;;;;1.05;83.92;98619.71;1721877;81;20911;-52
2022/01/28 04:48:09;;;;;;;6.33;3.23;;;;;;;1.05;83.87;98617.93;1719188;81;22622;-52
2022/01/28 04:53:06;;;;;;;3.97;2.50;;;;;;;1.03;83.77;98627.70;1718997;81;22134;-52
2022/01/28 04:58:10;;;;;;;3.87;2.13;;;;;;;1.05;83.87;98621.03;1722164;81;21037;-51
2022/01/28 05:03:27;;;;;;;4.37;2.95;;;;;;;1.06;83.91;98618.35;1706155;81;21108;-52
2022/01/28 05:06:22;;;;;;;3.17;2.57;;;;;;;1.06;83.85;98613.05;1697880;82;21375;-52
2022/01/28 05:26:51;;;;;;;4.77;2.03;;;;;;;1.08;83.87;98593.14;1703060;82;21642;-54
2022/01/28 05:29:07;;;;;;;5.43;2.13;;;;;;;1.07;83.84;98594.91;1701677;82;21062;-53
2022/01/28 05:31:33;;;;;;;4.83;2.17;;;;;;;1.10;83.84;98595.30;1698217;82;21109;-53
2022/01/28 05:34:00;;;;;;;4.97;2.70;;;;;;;1.10;83.83;98608.09;1696241;82;21331;-53
2022/01/28 05:36:27;;;;;;;5.40;1.90;;;;;;;1.13;83.96;98602.68;1700244;82;21610;-53
2022/01/28 05:38:53;;;;;;;4.13;2.83;;;;;;;1.18;83.94;98595.94;1700698;82;21564;-54
2022/01/28 05:41:19;;;;;;;3.60;2.17;;;;;;;1.19;83.87;98595.48;1697618;82;21084;-53
2022/01/28 05:43:45;;;;;;;6.17;3.37;;;;;;;1.18;83.90;98589.31;1699525;82;21175;-53
2022/01/28 05:46:13;;;;;;;4.87;3.00;;;;;;;1.19;83.85;98588.86;1701046;82;21554;-53
2022/01/28 05:48:39;;;;;;;3.20;2.13;;;;;;;1.18;83.87;98584.47;1699460;82;21169;-53
2022/01/28 05:51:05;;;;;;;3.80;3.10;;;;;;;1.19;83.83;98588.41;1699323;82;21844;-53
2022/01/28 05:53:32;;;;;;;5.63;2.40;;;;;;;1.19;83.81;98595.03;1700111;82;21402;-54
2022/01/28 05:55:58;;;;;;;3.50;2.60;;;;;;;1.19;83.82;98597.68;1701070;82;21057;-53
2022/01/28 05:58:26;;;;;;;4.90;3.10;;;;;;;1.20;83.90;98598.06;1706739;82;20993;-53
2022/01/28 06:00:52;;;;;;;4.70;2.43;;;;;;;1.21;83.97;98593.63;1700876;82;21415;-53
2022/01/28 06:03:19;;;;;;;5.20;2.83;;;;;;;1.22;83.96;98598.90;1708851;82;21688;-53
2022/01/28 06:05:47;;;;;;;3.63;2.30;;;;;;;1.23;83.91;98598.44;1705942;82;21715;-54
2022/01/28 06:08:13;;;;;;;3.83;1.90;;;;;;;1.23;83.86;98594.02;1708528;82;21050;-53
2022/01/28 06:10:40;;;;;;;4.53;2.70;;;;;;;1.23;83.79;98599.31;1701288;82;21069;-54
2022/01/28 06:13:07;;;;;;;3.57;2.20;;;;;;;1.24;83.87;98600.19;1700347;82;21144;-54
2022/01/28 06:15:34;;;;;;;7.13;3.20;;;;;;;1.25;83.88;98592.19;1698966;82;21134;-53
2022/01/28 06:18:00;;;;;;;5.20;2.50;;;;;;;1.27;83.95;98593.02;1700790;82;21188;-54
2022/01/28 06:20:27;;;;;;;9.17;3.53;;;;;;;1.28;83.94;98588.11;1706641;82;21352;-54
2022/01/28 06:22:54;;;;;;;5.57;3.70;;;;;;;1.30;83.91;98587.61;1699690;82;21350;-53
2022/01/28 06:25:21;;;;;;;6.03;3.03;;;;;;;1.30;83.90;98589.39;1706569;82;21109;-53
2022/01/28 06:27:47;;;;;;;4.37;3.30;;;;;;;1.31;83.81;98584.05;1701426;82;21116;-54
2022/01/28 06:30:16;;;;;;;5.17;2.07;;;;;;;1.32;83.79;98584.92;1705905;82;20962;-54
2022/01/28 06:32:41;;;;;;;4.20;2.60;;;;;;;1.34;83.81;98585.30;1706419;82;20931;-54
2022/01/28 06:35:08;;;;;;;4.77;2.80;;;;;;;1.36;83.82;98575.48;1701673;82;20978;-54
2022/01/28 06:37:42;;;;;;;4.43;2.50;;;;;;;1.41;83.84;98576.23;1702229;83;21458;-53
2022/01/28 06:40:11;;;;;;;7.47;3.53;;;;;;;1.44;83.73;98573.50;1704106;82;21087;-52
2022/01/28 06:42:37;;;;;;;7.20;4.00;;;;;;;1.43;83.63;98574.88;1704050;82;21061;-53
2022/01/28 06:45:06;;;;;;;6.30;4.07;;;;;;;1.44;83.57;98585.89;1700560;82;21382;-52
2022/01/28 06:47:35;;;;;;;7.00;4.57;;;;;;;1.41;83.57;98596.13;1643835;85;21546;-52
2022/01/28 06:50:05;;;;;;;7.27;4.23;;;;;;;1.42;83.57;98603.63;1639527;85;21584;-53
2022/01/28 06:52:33;;;;;;;11.43;4.57;;;;;;;1.43;83.51;98607.56;1648390;85;21594;-53
2022/01/28 06:55:01;;;;;;;5.20;3.77;;;;;;;1.44;83.47;98605.33;1664633;84;21088;-53
2022/01/28 06:57:28;;;;;;;7.40;3.73;;;;;;;1.44;83.51;98605.33;1658373;84;21062;-53
2022/01/28 06:59:56;;;;;;;9.07;5.63;;;;;;;1.47;83.55;98601.23;1648974;85;21045;-53
2022/01/28 07:02:22;;;;;;;10.30;7.07;;;;;;;1.48;83.48;98597.67;1666459;84;21130;-53
2022/01/28 07:04:49;;;;;;;10.70;7.53;;;;;;;1.50;83.44;98615.73;1672548;83;21105;-53
2022/01/28 07:07:15;;;;;;;9.37;6.10;;;;;;;1.51;83.40;98616.61;1672012;84;21738;-53
2022/01/28 07:09:42;;;;;;;4.10;2.80;;;;;;;1.50;83.39;98610.44;1669605;84;21456;-53
2022/01/28 07:12:09;;;;;;;6.27;3.17;;;;;;;1.53;83.30;98599.33;1669648;83;21760;-53
2022/01/28 07:14:35;;;;;;;5.23;2.80;;;;;;;1.53;83.27;98595.73;1665760;83;21300;-53
2022/01/28 07:17:03;;;;;;;5.60;3.47;;;;;;;1.56;83.30;98594.78;1669920;84;22252;-52
2022/01/28 07:19:30;;;;;;;7.17;4.07;;;;;;;1.59;83.23;98597.81;1666843;83;21160;-53
2022/01/28 07:21:57;;;;;;;6.40;3.73;;;;;;;1.61;83.20;98597.31;1668236;84;21507;-53
2022/01/28 07:24:24;;;;;;;6.47;3.83;;;;;;;1.61;83.09;98592.01;1721529;81;21065;-53
2022/01/28 07:26:51;;;;;;;6.83;4.20;;;;;;;1.63;83.06;98595.00;1717366;82;21547;-53
2022/01/28 07:29:18;;;;;;;5.57;3.80;;;;;;;1.66;83.00;98592.72;1714436;81;21258;-53
2022/01/28 07:31:45;;;;;;;7.83;4.27;;;;;;;1.69;82.91;98597.95;1712677;81;21380;-53
2022/01/28 07:34:12;;;;;;;7.43;3.07;;;;;;;1.73;82.87;98594.27;1718906;81;22066;-53
2022/01/28 07:36:39;;;;;;;5.60;2.97;;;;;;;1.78;82.83;98596.33;1717560;81;21551;-53
2022/01/28 07:39:06;;;;;;;5.50;3.57;;;;;;;1.84;82.66;98590.37;1725305;81;21472;-53
2022/01/28 07:41:34;;;;;;;6.93;4.20;;;;;;;1.88;82.60;98584.03;1718840;82;22595;-53
2022/01/28 07:44:00;;;;;;;6.43;4.07;;;;;;;1.95;82.51;98590.03;1720576;82;21102;-53
2022/01/28 07:46:26;;;;;;;5.57;4.03;;;;;;;1.98;82.24;98592.57;1717411;82;21089;-53
2022/01/28 07:48:53;;;;;;;6.40;4.47;;;;;;;1.99;82.08;98586.81;1717534;82;21061;-53
2022/01/28 07:51:19;;;;;;;7.10;3.63;;;;;;;2.01;81.97;98588.50;1721249;82;21060;-53
2022/01/28 07:53:45;;;;;;;6.23;3.23;;;;;;;2.05;81.84;98578.17;1718058;82;22966;-53
2022/01/28 07:56:13;;;;;;;4.20;2.83;;;;;;;2.09;81.67;98578.50;1718707;82;21116;-53
2022/01/28 07:58:39;;;;;;;6.10;3.27;;;;;;;2.13;81.57;98574.81;1720809;82;21474;-53
2022/01/28 08:01:06;;;;;;;6.47;3.83;;;;;;;2.16;81.42;98569.41;1719399;82;21451;-53
2022/01/28 08:03:32;;;;;;;5.03;3.57;;;;;;;2.21;81.29;98569.28;1722732;82;21541;-53
2022/01/28 08:05:58;;;;;;;5.40;3.10;;;;;;;2.25;81.14;98566.45;1726801;82;21164;-53
2022/01/28 08:08:25;;;;;;;7.20;4.83;;;;;;;2.31;80.85;98563.17;1728988;82;21386;-52
2022/01/28 08:10:51;;;;;;;5.67;3.27;;;;;;;2.32;80.54;98553.83;1733454;82;20997;-53
2022/01/28 08:13:18;;;;;;;7.43;3.33;;;;;;;2.34;80.28;98557.31;1733116;82;21324;-52
2022/01/28 08:15:44;;;;;;;4.40;2.93;;;;;;;2.35;80.16;98556.84;1727452;82;22582;-53
2022/01/28 08:18:10;;;;;;;8.00;3.03;;;;;;;2.36;80.03;98554.15;1731353;82;22545;-53
2022/01/28 08:20:37;;;;;;;5.10;2.80;;;;;;;2.38;79.84;98550.12;1732206;82;21549;-53
2022/01/28 08:23:03;;;;;;;5.87;3.43;;;;;;;2.39;79.75;98551.82;1731111;82;21429;-53
2022/01/28 08:25:34;;;;;;;5.63;3.23;;;;;;;2.41;79.55;98552.19;1725516;81;21110;-53
2022/01/28 08:28:01;;;;;;;8.73;4.73;;;;;;;2.42;79.47;98549.94;1731826;82;20967;-53
2022/01/28 08:30:27;;;;;;;5.67;3.90;;;;;;;2.44;79.26;98560.06;1733073;82;21068;-53
2022/01/28 08:32:54;;;;;;;8.40;4.97;;;;;;;2.44;79.13;98556.53;1732073;82;20966;-53
2022/01/28 08:35:33;;;;;;;6.73;4.10;;;;;;;2.45;79.02;98562.26;1731906;82;21094;-53
2022/01/28 08:37:59;;;;;;;4.33;3.43;;;;;;;2.43;78.94;98560.98;1728115;82;21065;-53
2022/01/28 08:40:27;;;;;;;4.80;3.40;;;;;;;2.43;78.85;98565.42;1730953;82;21093;-53
2022/01/28 08:42:54;;;;;;;5.63;2.60;;;;;;;2.40;78.79;98565.05;1732831;82;21469;-53
2022/01/28 08:45:21;;;;;;;3.93;3.00;;;;;;;2.39;78.74;98564.64;1732569;82;21078;-53
2022/01/28 08:47:47;;;;;;;6.30;3.67;;;;;;;2.38;78.66;98571.36;1729337;82;21136;-53
2022/01/28 08:50:14;;;;;;;5.67;3.63;;;;;;;2.34;78.66;98565.27;1732093;82;20884;-53
2022/01/28 08:52:40;;;;;;;4.70;2.80;;;;;;;2.36;78.77;98567.88;1735040;82;21429;-53
2022/01/28 08:55:07;;;;;;;3.83;3.37;;;;;;;2.35;78.84;98564.81;1733935;82;22006;-53
2022/01/28 08:57:33;;;;;;;7.67;3.30;;;;;;;2.33;78.82;98563.99;1733701;82;20926;-54
2022/01/28 09:00:07;;;;;;;5.20;3.80;;;;;;;2.33;78.83;98569.30;1738538;82;20912;-53
2022/01/28 09:02:30;;;;;;;5.40;3.63;;;;;;;2.28;78.86;98567.69;1732537;82;20918;-54
2022/01/28 09:04:56;;;;;;;6.50;4.90;;;;;;;2.28;78.88;98563.70;1731879;82;20970;-54
2022/01/28 09:07:22;;;;;;;6.70;4.07;;;;;;;2.28;78.89;98569.47;1732390;82;21114;-54
2022/01/28 09:09:52;;;;;;;6.43;4.47;;;;;;;2.31;78.89;98569.80;1732081;82;20967;-54
2022/01/28 09:12:35;;;;;;;4.33;3.03;;;;;;;2.31;78.92;98561.84;1736097;82;21413;-54
2022/01/28 09:14:57;;;;;;;5.03;3.63;;;;;;;2.34;78.91;98563.08;1731762;82;20942;-54
2022/01/28 09:17:25;;;;;;;6.13;3.50;;;;;;;2.35;78.87;98550.20;1735922;82;20932;-54
2022/01/28 09:19:53;;;;;;;5.33;3.67;;;;;;;2.38;78.90;98552.31;1728898;82;21007;-54
2022/01/28 09:22:20;;;;;;;5.93;4.37;;;;;;;2.42;78.86;98543.77;1737306;82;20991;-54
2022/01/28 09:24:46;;;;;;;4.60;3.80;;;;;;;2.46;78.83;98535.65;1734310;82;20970;-55
2022/01/28 09:27:12;;;;;;;6.03;4.93;;;;;;;2.52;78.76;98539.41;1735700;82;21022;-54
2022/01/28 09:29:39;;;;;;;5.50;3.77;;;;;;;2.56;78.71;98530.39;1734148;82;20995;-54
2022/01/28 09:32:05;;;;;;;6.40;3.73;;;;;;;2.59;78.53;98523.66;1731970;82;21051;-55
2022/01/28 09:34:32;;;;;;;5.57;3.93;;;;;;;2.62;78.42;98524.89;1734081;82;21804;-55
2022/01/28 09:36:58;;;;;;;5.30;3.53;;;;;;;2.66;78.34;98520.31;1730860;82;21046;-55
2022/01/28 09:39:24;;;;;;;3.73;2.67;;;;;;;2.70;78.25;98521.95;1729985;82;21097;-55
2022/01/28 09:41:59;;;;;;;5.23;3.90;;;;;;;2.72;78.01;98508.62;1732395;82;20958;-55
2022/01/28 09:44:19;;;;;;;6.40;4.10;;;;;;;2.76;77.94;98504.91;1728871;82;22209;-55
2022/01/28 09:46:45;;;;;;;6.70;4.90;;;;;;;2.79;77.88;98505.67;1728726;82;21032;-55
2022/01/28 09:49:12;;;;;;;5.77;3.83;;;;;;;2.85;77.88;98504.57;1730651;82;22370;-56
2022/01/28 09:51:39;;;;;;;5.70;3.03;;;;;;;2.88;77.67;98493.84;1727489;82;20957;-56
2022/01/28 09:54:05;;;;;;;6.33;3.77;;;;;;;2.94;77.47;98497.59;1729875;82;21389;-56
2022/01/28 09:56:31;;;;;;;7.47;4.13;;;;;;;2.99;77.37;98487.63;1728551;81;21556;-57
2022/01/28 09:58:59;;;;;;;5.67;4.13;;;;;;;3.01;77.17;98491.11;1725903;82;22243;-57
2022/01/28 10:03:15;;;;;;;5.17;4.57;;;;;;;3.08;76.91;98479.77;1777412;79;22989;-58
2022/01/28 10:05:43;;;;;;;7.20;4.87;;;;;;;3.04;76.75;98479.91;1753870;80;21044;-57
2022/01/28 10:08:24;;;;;;;7.50;5.07;;;;;;;3.04;76.60;98475.92;1750796;80;22852;-56
2022/01/28 10:10:55;;;;;;;10.87;6.03;;;;;;;3.02;76.43;98476.44;1765827;80;21376;-56
2022/01/28 10:13:42;;;;;;;7.93;5.53;;;;;;;3.02;76.38;98478.23;1762448;80;20950;-56
2022/01/28 10:16:10;;;;;;;9.23;5.57;;;;;;;3.01;76.28;98470.71;1756468;80;20982;-57
2022/01/28 10:18:58;;;;;;;7.53;5.07;;;;;;;2.99;76.28;98465.04;1746123;80;20931;-57
2022/01/28 10:21:32;;;;;;;5.97;4.43;;;;;;;2.98;76.24;98461.97;1755498;80;21127;-58
2022/01/28 10:24:24;;;;;;;9.33;4.57;;;;;;;2.94;76.28;98462.58;1757948;80;20856;-58
2022/01/28 10:27:06;;;;;;;5.33;3.93;;;;;;;2.90;76.26;98459.61;1756833;80;20871;-57
2022/01/28 10:29:31;;;;;;;7.30;4.90;;;;;;;2.87;76.30;98454.44;1752950;80;21640;-58
2022/01/28 10:32:05;;;;;;;8.03;3.73;;;;;;;2.86;76.37;98448.70;1757564;80;20903;-57
2022/01/28 10:37:58;;;;;;;3.77;2.90;;;;;;;2.98;76.46;98434.94;1773728;78;26890;-59
2022/01/28 10:40:24;;;;;;;5.73;3.53;;;;;;;2.97;76.45;98437.22;1743044;80;21025;-59
2022/01/28 10:42:52;;;;;;;6.23;4.20;;;;;;;3.03;76.36;98436.10;1712681;81;21155;-59
2022/01/28 10:45:20;;;;;;;5.73;4.20;;;;;;;3.10;76.24;98433.60;1710209;81;20972;-58
2022/01/28 10:47:54;;;;;;;8.13;4.57;;;;;;;3.14;76.16;98433.03;1711370;81;20937;-58
2022/01/28 10:50:29;;;;;;;3.07;2.70;;;;;;;3.18;76.05;98424.86;1695630;83;20943;-58
2022/01/28 10:53:20;;;;;;;5.00;2.37;;;;;;;3.20;75.74;98426.13;1694675;83;20927;-58
2022/01/28 10:55:49;;;;;;;4.83;3.07;;;;;;;3.22;75.64;98412.32;1694067;83;21752;-58
2022/01/28 10:58:18;;;;;;;3.57;2.73;;;;;;;3.26;75.54;98413.91;1696805;83;21468;-58
2022/01/28 11:00:46;;;;;;;6.80;2.50;;;;;;;3.30;75.48;98407.09;1691140;84;20975;-58
2022/01/28 11:03:16;;;;;;;2.67;1.97;;;;;;;3.35;75.36;98412.22;1693005;84;21413;-57
2022/01/28 11:05:43;;;;;;;5.20;3.63;;;;;;;3.40;75.14;98404.94;1691433;83;21041;-57
2022/01/28 11:08:13;;;;;;;4.53;2.80;;;;;;;3.45;74.94;98404.73;1691856;83;21113;-58
2022/01/28 11:10:40;;;;;;;4.73;2.60;;;;;;;3.46;74.73;98399.81;1688570;83;21391;-57
2022/01/28 11:13:07;;;;;;;3.87;2.53;;;;;;;3.49;74.58;98397.88;1692748;84;21440;-58
2022/01/28 11:15:33;;;;;;;4.70;2.80;;;;;;;3.54;74.39;98393.72;1690421;84;21247;-57
2022/01/28 11:18:00;;;;;;;3.17;2.60;;;;;;;3.58;74.29;98395.30;1687185;83;21093;-57
2022/01/28 11:20:39;;;;;;;8.27;3.87;;;;;;;3.61;74.04;98385.41;1696092;83;21145;-58
2022/01/28 11:23:30;;;;;;;6.30;3.33;;;;;;;3.64;73.92;98381.30;1694055;83;21136;-58
2022/01/28 11:26:20;;;;;;;3.97;3.20;;;;;;;3.73;73.77;98380.91;1689546;83;22603;-58
2022/01/28 11:28:55;;;;;;;4.20;2.97;;;;;;;3.83;73.66;98378.70;1685150;84;21096;-58
2022/01/28 11:31:45;;;;;;;5.40;3.30;;;;;;;3.89;73.33;98378.45;1689929;84;21081;-58
2022/01/28 11:34:30;;;;;;;4.40;2.23;;;;;;;3.91;73.08;98377.06;1693056;83;21111;-58
2022/01/28 11:37:11;;;;;;;4.53;2.20;;;;;;;3.87;72.66;98386.09;1683577;84;20994;-57
2022/01/28 11:39:41;;;;;;;2.87;1.60;;;;;;;3.83;72.38;98378.70;1668938;84;21615;-56
2022/01/28 11:42:25;;;;;;;3.93;2.33;;;;;;;3.82;72.32;98383.66;1677809;83;21105;-59
2022/01/28 11:44:55;;;;;;;3.10;2.00;;;;;;;3.79;72.02;98371.33;1676860;84;21002;-57
2022/01/28 11:47:37;;;;;;;3.43;1.63;;;;;;;3.75;71.99;98368.84;1677418;83;21534;-57
2022/01/28 11:50:24;;;;;;;5.93;1.97;;;;;;;3.72;71.87;98367.66;1675730;83;21709;-56
2022/01/28 11:52:53;;;;;;;2.90;2.13;;;;;;;3.67;71.87;98378.48;1679722;84;21050;-57
2022/01/28 11:55:28;;;;;;;2.80;1.70;;;;;;;3.64;71.95;98375.11;1672754;84;21523;-56
2022/01/28 11:58:06;;;;;;;;;;;;;;;3.62;71.93;98372.97;1678273;84;21516;-57
2022/01/28 12:00:47;;;;;;;1.70;1.43;;;;;;;3.62;71.99;98372.97;1674882;84;21525;-56
2022/01/28 12:03:24;;;;;;;3.10;2.00;;;;;;;3.61;71.88;98368.58;1648647;84;21141;-57
2022/01/28 12:05:56;;;;;;;2.63;1.63;;;;;;;3.62;71.80;98369.84;1681565;84;21117;-56
2022/01/28 12:08:29;;;;;;;3.47;2.17;;;;;;;3.62;71.75;98368.98;1675822;84;21062;-56
2022/01/28 12:10:55;;;;;;;3.43;1.67;;;;;;;3.63;71.77;98365.39;1675313;84;21041;-57
2022/01/28 12:13:52;;;;;;;3.17;2.50;;;;;;;3.64;71.68;98363.14;1713087;82;21482;-56
2022/01/28 12:16:32;;;;;;;2.63;2.37;;;;;;;3.65;71.63;98360.42;1670324;84;21140;-56
2022/01/28 12:18:59;;;;;;;3.97;2.90;;;;;;;3.65;71.51;98364.88;1713618;82;21026;-57
2022/01/28 12:21:31;;;;;;;5.07;3.20;;;;;;;3.63;71.52;98365.39;1715412;82;21224;-57
2022/01/28 12:24:23;;;;;;;3.57;2.87;;;;;;;3.62;71.58;98366.32;1720117;82;20904;-57
2022/01/28 12:27:05;;;;;;;2.20;1.90;;;;;;;3.62;71.58;98367.65;1719859;82;22415;-57
2022/01/28 12:29:36;;;;;;;6.33;2.37;;;;;;;3.61;71.38;98361.46;1712944;82;21363;-57
2022/01/28 12:32:04;;;;;;;6.20;2.73;;;;;;;3.61;71.34;98360.59;1715663;82;21097;-58
2022/01/28 12:34:31;;;;;;;3.83;1.90;;;;;;;3.60;71.37;98360.19;1714982;82;20931;-56
2022/01/28 12:36:58;;;;;;;3.97;2.97;;;;;;;3.59;71.40;98359.33;1715761;81;21515;-57
2022/01/28 12:39:33;;;;;;;5.30;1.93;;;;;;;3.58;71.32;98366.90;1714167;82;22033;-58
2022/01/28 12:42:10;;;;;;;4.08;2.52;;;;;;;3.57;71.30;98365.20;1716105;82;21490;-58
2022/01/28 12:44:32;;;;;;;2.53;1.97;;;;;;;3.55;71.27;98350.22;1716369;82;20908;-57
2022/01/28 12:47:03;;;;;;;2.10;1.50;;;;;;;3.54;71.13;98347.16;1716063;82;21010;-58
2022/01/28 12:49:32;;;;;;;3.30;1.83;;;;;;;3.51;71.00;98350.80;1721184;82;20958;-58
2022/01/28 12:52:02;;;;;;;2.53;1.90;;;;;;;3.50;70.88;98347.73;1719650;82;21088;-59
2022/01/28 12:54:38;;;;;;;2.67;2.00;;;;;;;3.50;70.81;98349.53;1719661;82;20935;-58
2022/01/28 12:57:07;;;;;;;2.83;1.73;;;;;;;3.48;70.83;98350.08;1718679;82;20860;-58
2022/01/28 12:59:37;;;;;;;3.80;2.20;;;;;;;3.47;70.84;98347.02;1714327;82;20995;-58
2022/01/28 13:02:04;;;;;;;5.23;1.97;;;;;;;3.46;70.88;98343.49;1712844;82;21092;-58
2022/01/28 13:09:51;;;;;;;2.23;1.70;;;;;;;3.35;70.90;98336.41;1701627;82;20947;-57
2022/01/28 13:12:28;;;;;;;3.00;1.77;;;;;;;3.29;70.88;98337.55;1718736;82;20896;-58
2022/01/28 13:14:57;;;;;;;1.87;1.30;;;;;;;3.25;70.92;98335.06;1720190;82;20920;-58